Terminal Aerodrome Forecast
Issued by NWS Charleston, WV

Current Version | Previous Version | Text Only | Print | Product List | Glossary Off
Versions: 1 2 3 4 5 6 7 8 9 10 11 12 13 14 15 16 17 18 19 20 21 22

000
FTUS41 KRLX 140302 AAA
TAFCRW
TAF AMD
KCRW 140302Z 1403/1424 23015G25KT P6SM BKN060 OVC070
     FM140600 24015G28KT P6SM OVC025
     FM141100 28009G16KT P6SM BKN021
     FM142000 30003KT P6SM BKN040=

USA.gov is the U.S. government's official web portal to all federal, state and local government web resources and services.